sensor_id;sensor_type;location;lat;lon;timestamp;temperature;humidity
32217;DHT22;18709;51.140;4.088;2022-08-19T00:01:18;22.80;76.80
32217;DHT22;18709;51.140;4.088;2022-08-19T00:03:44;22.80;76.90
32217;DHT22;18709;51.140;4.088;2022-08-19T00:06:10;22.80;76.80
32217;DHT22;18709;51.140;4.088;2022-08-19T00:08:35;22.80;76.80
32217;DHT22;18709;51.140;4.088;2022-08-19T00:11:01;22.80;76.90
32217;DHT22;18709;51.140;4.088;2022-08-19T00:13:27;22.70;76.80
32217;DHT22;18709;51.140;4.088;2022-08-19T00:15:54;22.70;76.70
32217;DHT22;18709;51.140;4.088;2022-08-19T00:18:20;22.60;76.80
32217;DHT22;18709;51.140;4.088;2022-08-19T00:20:46;22.60;77.00
32217;DHT22;18709;51.140;4.088;2022-08-19T00:23:12;22.50;77.20
32217;DHT22;18709;51.140;4.088;2022-08-19T00:25:38;22.50;77.30
32217;DHT22;18709;51.140;4.088;2022-08-19T00:28:04;22.50;77.60
32217;DHT22;18709;51.140;4.088;2022-08-19T00:30:30;22.50;77.90
32217;DHT22;18709;51.140;4.088;2022-08-19T00:32:56;22.50;77.90
32217;DHT22;18709;51.140;4.088;2022-08-19T00:35:22;22.40;78.40
32217;DHT22;18709;51.140;4.088;2022-08-19T00:37:49;22.40;78.80
32217;DHT22;18709;51.140;4.088;2022-08-19T00:40:16;22.40;79.10
32217;DHT22;18709;51.140;4.088;2022-08-19T00:42:43;22.30;79.60
32217;DHT22;18709;51.140;4.088;2022-08-19T00:45:16;22.30;79.80
32217;DHT22;18709;51.140;4.088;2022-08-19T00:47:44;22.20;80.40
32217;DHT22;18709;51.140;4.088;2022-08-19T00:50:14;22.10;80.70
32217;DHT22;18709;51.140;4.088;2022-08-19T00:52:46;22.00;80.80
32217;DHT22;18709;51.140;4.088;2022-08-19T00:55:23;22.10;80.40
32217;DHT22;18709;51.140;4.088;2022-08-19T00:58:01;22.10;80.50
32217;DHT22;18709;51.140;4.088;2022-08-19T01:00:29;22.10;80.20
32217;DHT22;18709;51.140;4.088;2022-08-19T01:02:55;22.00;80.70
32217;DHT22;18709;51.140;4.088;2022-08-19T01:05:26;22.10;80.50
32217;DHT22;18709;51.140;4.088;2022-08-19T01:07:55;22.10;80.50
32217;DHT22;18709;51.140;4.088;2022-08-19T01:10:26;22.10;80.40
32217;DHT22;18709;51.140;4.088;2022-08-19T01:12:54;22.20;80.10
32217;DHT22;18709;51.140;4.088;2022-08-19T01:15:26;22.20;80.20
32217;DHT22;18709;51.140;4.088;2022-08-19T01:17:55;22.20;80.00
32217;DHT22;18709;51.140;4.088;2022-08-19T01:20:23;22.10;80.30
32217;DHT22;18709;51.140;4.088;2022-08-19T01:22:58;22.10;80.20
32217;DHT22;18709;51.140;4.088;2022-08-19T01:25:31;22.00;80.20
32217;DHT22;18709;51.140;4.088;2022-08-19T01:27:57;22.00;80.20
32217;DHT22;18709;51.140;4.088;2022-08-19T01:30:30;21.90;80.60
32217;DHT22;18709;51.140;4.088;2022-08-19T01:32:57;21.90;81.00
32217;DHT22;18709;51.140;4.088;2022-08-19T01:35:25;21.90;81.10
32217;DHT22;18709;51.140;4.088;2022-08-19T01:38:01;22.00;80.20
32217;DHT22;18709;51.140;4.088;2022-08-19T01:40:30;22.20;79.60
32217;DHT22;18709;51.140;4.088;2022-08-19T01:42:57;22.20;79.30
32217;DHT22;18709;51.140;4.088;2022-08-19T01:45:25;22.20;79.40
32217;DHT22;18709;51.140;4.088;2022-08-19T01:47:51;22.20;79.60
32217;DHT22;18709;51.140;4.088;2022-08-19T01:50:17;22.10;79.70
32217;DHT22;18709;51.140;4.088;2022-08-19T01:52:44;22.10;79.90
32217;DHT22;18709;51.140;4.088;2022-08-19T01:55:14;22.10;79.60
32217;DHT22;18709;51.140;4.088;2022-08-19T01:57:44;22.00;80.20
32217;DHT22;18709;51.140;4.088;2022-08-19T02:00:13;21.80;80.70
32217;DHT22;18709;51.140;4.088;2022-08-19T02:02:41;21.90;80.30
32217;DHT22;18709;51.140;4.088;2022-08-19T02:05:07;21.80;80.60
32217;DHT22;18709;51.140;4.088;2022-08-19T02:07:34;21.70;81.00
32217;DHT22;18709;51.140;4.088;2022-08-19T02:10:08;21.80;80.70
32217;DHT22;18709;51.140;4.088;2022-08-19T02:12:34;21.90;80.40
32217;DHT22;18709;51.140;4.088;2022-08-19T02:15:01;21.80;80.50
32217;DHT22;18709;51.140;4.088;2022-08-19T02:17:28;21.70;81.30
32217;DHT22;18709;51.140;4.088;2022-08-19T02:19:55;21.60;81.40
32217;DHT22;18709;51.140;4.088;2022-08-19T02:22:21;21.60;81.30
32217;DHT22;18709;51.140;4.088;2022-08-19T02:24:46;21.50;81.70
32217;DHT22;18709;51.140;4.088;2022-08-19T02:27:13;21.50;81.40
32217;DHT22;18709;51.140;4.088;2022-08-19T02:29:39;21.60;81.20
32217;DHT22;18709;51.140;4.088;2022-08-19T02:32:06;21.60;81.40
32217;DHT22;18709;51.140;4.088;2022-08-19T02:34:34;21.50;81.60
32217;DHT22;18709;51.140;4.088;2022-08-19T02:37:00;21.50;81.60
32217;DHT22;18709;51.140;4.088;2022-08-19T02:39:26;21.50;81.60
32217;DHT22;18709;51.140;4.088;2022-08-19T02:41:52;21.40;81.80
32217;DHT22;18709;51.140;4.088;2022-08-19T02:44:18;21.30;82.10
32217;DHT22;18709;51.140;4.088;2022-08-19T02:46:46;21.20;82.90
32217;DHT22;18709;51.140;4.088;2022-08-19T02:49:12;21.10;83.10
32217;DHT22;18709;51.140;4.088;2022-08-19T02:51:43;21.10;83.50
32217;DHT22;18709;51.140;4.088;2022-08-19T02:54:11;21.00;83.40
32217;DHT22;18709;51.140;4.088;2022-08-19T02:56:39;21.10;83.30
32217;DHT22;18709;51.140;4.088;2022-08-19T02:59:05;21.20;82.90
32217;DHT22;18709;51.140;4.088;2022-08-19T03:01:34;21.20;83.10
32217;DHT22;18709;51.140;4.088;2022-08-19T03:04:02;21.10;83.00
32217;DHT22;18709;51.140;4.088;2022-08-19T03:06:28;21.00;83.50
32217;DHT22;18709;51.140;4.088;2022-08-19T03:08:54;21.00;83.50
32217;DHT22;18709;51.140;4.088;2022-08-19T03:11:23;20.90;84.00
32217;DHT22;18709;51.140;4.088;2022-08-19T03:13:50;20.80;84.60
32217;DHT22;18709;51.140;4.088;2022-08-19T03:16:29;20.80;84.70
32217;DHT22;18709;51.140;4.088;2022-08-19T03:18:57;20.70;84.70
32217;DHT22;18709;51.140;4.088;2022-08-19T03:21:27;20.80;84.50
32217;DHT22;18709;51.140;4.088;2022-08-19T03:23:58;20.80;84.50
32217;DHT22;18709;51.140;4.088;2022-08-19T03:26:24;20.70;84.50
32217;DHT22;18709;51.140;4.088;2022-08-19T03:28:49;20.60;85.00
32217;DHT22;18709;51.140;4.088;2022-08-19T03:31:17;20.50;85.30
32217;DHT22;18709;51.140;4.088;2022-08-19T03:33:44;20.60;85.20
32217;DHT22;18709;51.140;4.088;2022-08-19T03:36:13;20.60;85.10
32217;DHT22;18709;51.140;4.088;2022-08-19T03:38:46;20.60;84.90
32217;DHT22;18709;51.140;4.088;2022-08-19T03:41:16;20.60;84.70
32217;DHT22;18709;51.140;4.088;2022-08-19T03:43:43;20.60;85.30
32217;DHT22;18709;51.140;4.088;2022-08-19T03:46:14;20.50;85.70
32217;DHT22;18709;51.140;4.088;2022-08-19T03:48:41;20.40;86.10
32217;DHT22;18709;51.140;4.088;2022-08-19T03:51:19;20.40;86.10
32217;DHT22;18709;51.140;4.088;2022-08-19T03:53:45;20.50;85.50
32217;DHT22;18709;51.140;4.088;2022-08-19T03:56:11;20.40;85.80
32217;DHT22;18709;51.140;4.088;2022-08-19T03:58:40;20.40;85.90
32217;DHT22;18709;51.140;4.088;2022-08-19T04:01:11;20.30;85.90
32217;DHT22;18709;51.140;4.088;2022-08-19T04:03:38;20.40;85.90
32217;DHT22;18709;51.140;4.088;2022-08-19T04:06:16;20.30;85.80
32217;DHT22;18709;51.140;4.088;2022-08-19T04:08:43;20.30;85.80
32217;DHT22;18709;51.140;4.088;2022-08-19T04:11:12;20.20;86.40
32217;DHT22;18709;51.140;4.088;2022-08-19T04:13:38;20.30;86.20
32217;DHT22;18709;51.140;4.088;2022-08-19T04:16:04;20.40;85.40
32217;DHT22;18709;51.140;4.088;2022-08-19T04:18:31;20.50;85.10
32217;DHT22;18709;51.140;4.088;2022-08-19T04:20:58;20.60;84.40
32217;DHT22;18709;51.140;4.088;2022-08-19T04:23:24;20.70;83.90
32217;DHT22;18709;51.140;4.088;2022-08-19T04:25:50;20.80;83.70
32217;DHT22;18709;51.140;4.088;2022-08-19T04:28:15;20.70;83.80
32217;DHT22;18709;51.140;4.088;2022-08-19T04:30:46;20.70;83.70
32217;DHT22;18709;51.140;4.088;2022-08-19T04:33:20;20.70;83.80
32217;DHT22;18709;51.140;4.088;2022-08-19T04:35:47;20.50;84.80
32217;DHT22;18709;51.140;4.088;2022-08-19T04:38:18;20.50;85.00
32217;DHT22;18709;51.140;4.088;2022-08-19T04:40:47;20.30;85.60
32217;DHT22;18709;51.140;4.088;2022-08-19T04:43:32;20.40;85.30
32217;DHT22;18709;51.140;4.088;2022-08-19T04:46:00;20.50;85.00
32217;DHT22;18709;51.140;4.088;2022-08-19T04:48:29;20.50;85.10
32217;DHT22;18709;51.140;4.088;2022-08-19T04:50:57;20.30;85.60
32217;DHT22;18709;51.140;4.088;2022-08-19T04:53:31;20.30;85.90
32217;DHT22;18709;51.140;4.088;2022-08-19T04:55:59;20.40;85.80
32217;DHT22;18709;51.140;4.088;2022-08-19T04:58:26;20.40;85.40
32217;DHT22;18709;51.140;4.088;2022-08-19T05:00:53;20.50;85.10
32217;DHT22;18709;51.140;4.088;2022-08-19T05:03:19;20.60;84.90
32217;DHT22;18709;51.140;4.088;2022-08-19T05:05:46;20.60;85.00
32217;DHT22;18709;51.140;4.088;2022-08-19T05:08:18;20.50;85.20
32217;DHT22;18709;51.140;4.088;2022-08-19T05:10:48;20.60;85.00
32217;DHT22;18709;51.140;4.088;2022-08-19T05:13:16;20.70;84.60
32217;DHT22;18709;51.140;4.088;2022-08-19T05:15:43;20.80;84.80
32217;DHT22;18709;51.140;4.088;2022-08-19T05:18:09;20.80;84.60
32217;DHT22;18709;51.140;4.088;2022-08-19T05:20:53;20.80;85.10
32217;DHT22;18709;51.140;4.088;2022-08-19T05:23:38;20.90;84.90
32217;DHT22;18709;51.140;4.088;2022-08-19T05:26:04;21.00;84.60
32217;DHT22;18709;51.140;4.088;2022-08-19T05:28:30;21.10;84.30
32217;DHT22;18709;51.140;4.088;2022-08-19T05:30:56;21.20;84.40
32217;DHT22;18709;51.140;4.088;2022-08-19T05:33:22;21.20;84.10
32217;DHT22;18709;51.140;4.088;2022-08-19T05:35:48;21.20;84.50
32217;DHT22;18709;51.140;4.088;2022-08-19T05:38:18;21.20;84.00
32217;DHT22;18709;51.140;4.088;2022-08-19T05:40:44;21.30;84.00
32217;DHT22;18709;51.140;4.088;2022-08-19T05:43:14;21.40;84.00
32217;DHT22;18709;51.140;4.088;2022-08-19T05:45:43;21.50;83.80
32217;DHT22;18709;51.140;4.088;2022-08-19T05:48:12;21.60;83.80
32217;DHT22;18709;51.140;4.088;2022-08-19T05:50:40;21.60;83.90
32217;DHT22;18709;51.140;4.088;2022-08-19T05:53:06;21.80;83.20
32217;DHT22;18709;51.140;4.088;2022-08-19T05:55:34;21.90;82.80
32217;DHT22;18709;51.140;4.088;2022-08-19T05:58:00;21.90;82.90
32217;DHT22;18709;51.140;4.088;2022-08-19T06:00:27;21.90;82.90
32217;DHT22;18709;51.140;4.088;2022-08-19T06:02:54;21.90;82.80
32217;DHT22;18709;51.140;4.088;2022-08-19T06:05:21;21.90;82.90
32217;DHT22;18709;51.140;4.088;2022-08-19T06:07:47;21.90;82.90
32217;DHT22;18709;51.140;4.088;2022-08-19T06:10:13;22.00;82.80
32217;DHT22;18709;51.140;4.088;2022-08-19T06:12:39;21.90;83.60
32217;DHT22;18709;51.140;4.088;2022-08-19T06:15:08;21.90;83.50
32217;DHT22;18709;51.140;4.088;2022-08-19T06:17:35;21.90;83.80
32217;DHT22;18709;51.140;4.088;2022-08-19T06:20:05;22.00;83.80
32217;DHT22;18709;51.140;4.088;2022-08-19T06:22:31;21.90;83.70
32217;DHT22;18709;51.140;4.088;2022-08-19T06:25:03;21.80;84.30
32217;DHT22;18709;51.140;4.088;2022-08-19T06:27:29;21.90;84.10
32217;DHT22;18709;51.140;4.088;2022-08-19T06:29:56;21.90;84.40
32217;DHT22;18709;51.140;4.088;2022-08-19T06:32:22;22.00;84.70
32217;DHT22;18709;51.140;4.088;2022-08-19T06:34:48;22.10;84.30
32217;DHT22;18709;51.140;4.088;2022-08-19T06:37:14;22.20;84.10
32217;DHT22;18709;51.140;4.088;2022-08-19T06:39:44;22.30;84.20
32217;DHT22;18709;51.140;4.088;2022-08-19T06:42:11;22.30;83.90
32217;DHT22;18709;51.140;4.088;2022-08-19T06:44:43;22.30;83.90
32217;DHT22;18709;51.140;4.088;2022-08-19T06:47:13;22.40;83.80
32217;DHT22;18709;51.140;4.088;2022-08-19T06:49:39;22.60;83.60
32217;DHT22;18709;51.140;4.088;2022-08-19T06:52:05;22.70;83.40
32217;DHT22;18709;51.140;4.088;2022-08-19T06:54:31;22.90;82.90
32217;DHT22;18709;51.140;4.088;2022-08-19T06:56:58;22.90;82.90
32217;DHT22;18709;51.140;4.088;2022-08-19T06:59:28;23.10;82.20
32217;DHT22;18709;51.140;4.088;2022-08-19T07:01:56;23.20;82.10
32217;DHT22;18709;51.140;4.088;2022-08-19T07:04:34;23.30;81.70
32217;DHT22;18709;51.140;4.088;2022-08-19T07:07:06;23.30;82.20
32217;DHT22;18709;51.140;4.088;2022-08-19T07:09:36;23.40;82.00
32217;DHT22;18709;51.140;4.088;2022-08-19T07:12:04;23.50;82.00
32217;DHT22;18709;51.140;4.088;2022-08-19T07:14:33;23.40;82.20
32217;DHT22;18709;51.140;4.088;2022-08-19T07:17:08;23.50;82.10
32217;DHT22;18709;51.140;4.088;2022-08-19T07:19:34;23.50;82.00
32217;DHT22;18709;51.140;4.088;2022-08-19T07:22:02;23.70;81.70
32217;DHT22;18709;51.140;4.088;2022-08-19T07:24:29;23.90;81.00
32217;DHT22;18709;51.140;4.088;2022-08-19T07:26:57;23.70;81.70
32217;DHT22;18709;51.140;4.088;2022-08-19T07:29:27;23.80;81.40
32217;DHT22;18709;51.140;4.088;2022-08-19T07:31:54;23.80;81.60
32217;DHT22;18709;51.140;4.088;2022-08-19T07:34:29;23.90;81.60
32217;DHT22;18709;51.140;4.088;2022-08-19T07:36:58;23.90;81.20
32217;DHT22;18709;51.140;4.088;2022-08-19T07:39:30;23.90;81.40
32217;DHT22;18709;51.140;4.088;2022-08-19T07:41:58;24.10;81.40
32217;DHT22;18709;51.140;4.088;2022-08-19T07:44:24;24.10;81.20
32217;DHT22;18709;51.140;4.088;2022-08-19T07:46:53;24.20;80.80
32217;DHT22;18709;51.140;4.088;2022-08-19T07:49:20;24.20;81.20
32217;DHT22;18709;51.140;4.088;2022-08-19T07:51:52;24.20;81.10
32217;DHT22;18709;51.140;4.088;2022-08-19T07:54:20;23.90;81.80
32217;DHT22;18709;51.140;4.088;2022-08-19T07:56:46;23.70;82.30
32217;DHT22;18709;51.140;4.088;2022-08-19T07:59:12;23.60;82.80
32217;DHT22;18709;51.140;4.088;2022-08-19T08:01:38;23.60;82.70
32217;DHT22;18709;51.140;4.088;2022-08-19T08:04:06;23.70;82.80
32217;DHT22;18709;51.140;4.088;2022-08-19T08:06:51;23.70;82.50
32217;DHT22;18709;51.140;4.088;2022-08-19T08:09:38;23.70;82.60
32217;DHT22;18709;51.140;4.088;2022-08-19T08:12:07;23.80;82.30
32217;DHT22;18709;51.140;4.088;2022-08-19T08:17:08;23.90;82.30
32217;DHT22;18709;51.140;4.088;2022-08-19T08:19:34;24.00;81.90
32217;DHT22;18709;51.140;4.088;2022-08-19T08:22:01;24.00;81.80
32217;DHT22;18709;51.140;4.088;2022-08-19T08:24:29;24.10;81.70
32217;DHT22;18709;51.140;4.088;2022-08-19T08:27:00;24.10;81.80
32217;DHT22;18709;51.140;4.088;2022-08-19T08:29:30;24.10;81.80
32217;DHT22;18709;51.140;4.088;2022-08-19T08:31:57;24.10;81.70
32217;DHT22;18709;51.140;4.088;2022-08-19T08:34:23;24.00;82.10
32217;DHT22;18709;51.140;4.088;2022-08-19T08:36:49;24.00;82.40
32217;DHT22;18709;51.140;4.088;2022-08-19T08:39:18;24.10;82.40
32217;DHT22;18709;51.140;4.088;2022-08-19T08:44:22;24.10;82.30
32217;DHT22;18709;51.140;4.088;2022-08-19T08:46:54;24.30;81.80
32217;DHT22;18709;51.140;4.088;2022-08-19T08:49:26;24.30;81.80
32217;DHT22;18709;51.140;4.088;2022-08-19T08:52:00;24.20;81.90
32217;DHT22;18709;51.140;4.088;2022-08-19T08:54:33;24.10;82.40
32217;DHT22;18709;51.140;4.088;2022-08-19T08:57:00;24.20;82.30
32217;DHT22;18709;51.140;4.088;2022-08-19T08:59:30;24.10;82.40
32217;DHT22;18709;51.140;4.088;2022-08-19T09:01:58;24.20;82.20
32217;DHT22;18709;51.140;4.088;2022-08-19T09:04:24;24.20;82.20
32217;DHT22;18709;51.140;4.088;2022-08-19T09:09:34;24.30;81.80
32217;DHT22;18709;51.140;4.088;2022-08-19T09:12:11;24.40;81.60
32217;DHT22;18709;51.140;4.088;2022-08-19T09:17:13;24.40;81.70
32217;DHT22;18709;51.140;4.088;2022-08-19T09:20:21;24.50;81.60
32217;DHT22;18709;51.140;4.088;2022-08-19T09:22:46;24.50;81.30
32217;DHT22;18709;51.140;4.088;2022-08-19T09:25:18;24.40;82.00
32217;DHT22;18709;51.140;4.088;2022-08-19T09:27:46;24.40;81.90
32217;DHT22;18709;51.140;4.088;2022-08-19T09:30:23;24.50;81.70
32217;DHT22;18709;51.140;4.088;2022-08-19T09:32:50;24.60;81.60
32217;DHT22;18709;51.140;4.088;2022-08-19T09:35:19;24.70;81.20
32217;DHT22;18709;51.140;4.088;2022-08-19T09:37:59;24.70;81.40
32217;DHT22;18709;51.140;4.088;2022-08-19T09:40:29;24.70;81.30
32217;DHT22;18709;51.140;4.088;2022-08-19T09:42:55;24.70;81.40
32217;DHT22;18709;51.140;4.088;2022-08-19T09:45:22;24.70;81.60
32217;DHT22;18709;51.140;4.088;2022-08-19T09:47:52;24.90;81.30
32217;DHT22;18709;51.140;4.088;2022-08-19T09:50:18;25.00;81.40
32217;DHT22;18709;51.140;4.088;2022-08-19T09:52:44;25.10;80.60
32217;DHT22;18709;51.140;4.088;2022-08-19T09:55:11;25.20;80.50
32217;DHT22;18709;51.140;4.088;2022-08-19T09:57:37;25.20;80.10
32217;DHT22;18709;51.140;4.088;2022-08-19T10:00:05;25.30;79.80
32217;DHT22;18709;51.140;4.088;2022-08-19T10:02:31;25.30;79.70
32217;DHT22;18709;51.140;4.088;2022-08-19T10:04:57;25.20;79.70
32217;DHT22;18709;51.140;4.088;2022-08-19T10:07:41;25.20;79.90
32217;DHT22;18709;51.140;4.088;2022-08-19T10:10:07;25.20;79.60
32217;DHT22;18709;51.140;4.088;2022-08-19T10:12:35;25.30;79.90
32217;DHT22;18709;51.140;4.088;2022-08-19T10:15:02;25.30;79.70
32217;DHT22;18709;51.140;4.088;2022-08-19T10:17:29;25.30;79.50
32217;DHT22;18709;51.140;4.088;2022-08-19T10:19:54;25.40;79.50
32217;DHT22;18709;51.140;4.088;2022-08-19T10:22:20;25.40;79.40
32217;DHT22;18709;51.140;4.088;2022-08-19T10:24:46;25.40;79.30
32217;DHT22;18709;51.140;4.088;2022-08-19T10:27:12;25.50;78.90
32217;DHT22;18709;51.140;4.088;2022-08-19T10:29:40;25.60;78.70
32217;DHT22;18709;51.140;4.088;2022-08-19T10:32:07;25.60;78.50
32217;DHT22;18709;51.140;4.088;2022-08-19T10:34:35;25.40;79.30
32217;DHT22;18709;51.140;4.088;2022-08-19T10:37:02;25.40;79.00
32217;DHT22;18709;51.140;4.088;2022-08-19T10:39:33;25.50;79.50
32217;DHT22;18709;51.140;4.088;2022-08-19T10:42:03;25.80;79.00
32217;DHT22;18709;51.140;4.088;2022-08-19T10:44:29;26.10;78.00
32217;DHT22;18709;51.140;4.088;2022-08-19T10:46:55;26.50;76.90
32217;DHT22;18709;51.140;4.088;2022-08-19T10:49:21;27.00;76.10
32217;DHT22;18709;51.140;4.088;2022-08-19T10:51:48;27.20;75.20
32217;DHT22;18709;51.140;4.088;2022-08-19T10:54:33;27.40;73.90
32217;DHT22;18709;51.140;4.088;2022-08-19T10:57:17;27.50;73.10
32217;DHT22;18709;51.140;4.088;2022-08-19T10:59:43;27.70;72.80
32217;DHT22;18709;51.140;4.088;2022-08-19T11:02:10;27.70;72.30
32217;DHT22;18709;51.140;4.088;2022-08-19T11:04:38;27.90;71.80
32217;DHT22;18709;51.140;4.088;2022-08-19T11:07:05;28.00;71.50
32217;DHT22;18709;51.140;4.088;2022-08-19T11:09:35;28.20;71.60
32217;DHT22;18709;51.140;4.088;2022-08-19T11:12:07;28.40;71.30
32217;DHT22;18709;51.140;4.088;2022-08-19T11:14:34;28.50;70.30
32217;DHT22;18709;51.140;4.088;2022-08-19T11:17:01;28.80;70.30
32217;DHT22;18709;51.140;4.088;2022-08-19T11:19:27;29.00;69.20
32217;DHT22;18709;51.140;4.088;2022-08-19T11:21:53;29.30;68.70
32217;DHT22;18709;51.140;4.088;2022-08-19T11:24:23;29.60;67.80
32217;DHT22;18709;51.140;4.088;2022-08-19T11:26:51;29.70;66.90
32217;DHT22;18709;51.140;4.088;2022-08-19T11:29:20;29.90;66.30
32217;DHT22;18709;51.140;4.088;2022-08-19T11:31:48;30.20;65.80
32217;DHT22;18709;51.140;4.088;2022-08-19T11:34:20;30.50;65.10
32217;DHT22;18709;51.140;4.088;2022-08-19T11:36:47;30.70;64.10
32217;DHT22;18709;51.140;4.088;2022-08-19T11:39:16;30.70;64.00
32217;DHT22;18709;51.140;4.088;2022-08-19T11:41:43;31.00;63.40
32217;DHT22;18709;51.140;4.088;2022-08-19T11:44:09;31.00;63.50
32217;DHT22;18709;51.140;4.088;2022-08-19T11:46:37;30.90;63.40
32217;DHT22;18709;51.140;4.088;2022-08-19T11:49:05;30.90;63.60
32217;DHT22;18709;51.140;4.088;2022-08-19T11:51:32;30.80;63.10
32217;DHT22;18709;51.140;4.088;2022-08-19T11:54:00;30.90;63.00
32217;DHT22;18709;51.140;4.088;2022-08-19T11:56:27;30.80;63.40
32217;DHT22;18709;51.140;4.088;2022-08-19T11:58:53;30.30;63.20
32217;DHT22;18709;51.140;4.088;2022-08-19T12:01:22;30.20;63.10
32217;DHT22;18709;51.140;4.088;2022-08-19T12:03:50;29.70;64.30
32217;DHT22;18709;51.140;4.088;2022-08-19T12:06:20;29.40;65.40
32217;DHT22;18709;51.140;4.088;2022-08-19T12:08:49;29.30;65.70
32217;DHT22;18709;51.140;4.088;2022-08-19T12:11:15;29.10;66.00
32217;DHT22;18709;51.140;4.088;2022-08-19T12:13:41;29.10;66.10
32217;DHT22;18709;51.140;4.088;2022-08-19T12:16:13;29.00;66.50
32217;DHT22;18709;51.140;4.088;2022-08-19T12:18:41;28.90;66.40
32217;DHT22;18709;51.140;4.088;2022-08-19T12:21:10;29.00;66.30
32217;DHT22;18709;51.140;4.088;2022-08-19T12:23:40;29.20;66.50
32217;DHT22;18709;51.140;4.088;2022-08-19T12:26:06;29.40;65.80
32217;DHT22;18709;51.140;4.088;2022-08-19T12:28:32;29.60;65.30
32217;DHT22;18709;51.140;4.088;2022-08-19T12:30:58;29.50;64.90
32217;DHT22;18709;51.140;4.088;2022-08-19T12:33:24;29.40;65.10
32217;DHT22;18709;51.140;4.088;2022-08-19T12:35:52;29.60;65.10
32217;DHT22;18709;51.140;4.088;2022-08-19T12:38:18;29.70;64.90
32217;DHT22;18709;51.140;4.088;2022-08-19T12:40:48;30.00;64.40
32217;DHT22;18709;51.140;4.088;2022-08-19T12:43:15;30.30;63.60
32217;DHT22;18709;51.140;4.088;2022-08-19T12:45:45;30.40;63.50
32217;DHT22;18709;51.140;4.088;2022-08-19T12:48:10;30.30;63.30
32217;DHT22;18709;51.140;4.088;2022-08-19T12:50:39;30.60;62.70
32217;DHT22;18709;51.140;4.088;2022-08-19T12:53:05;31.10;61.90
32217;DHT22;18709;51.140;4.088;2022-08-19T12:55:31;31.20;61.10
32217;DHT22;18709;51.140;4.088;2022-08-19T12:57:57;31.20;61.80
32217;DHT22;18709;51.140;4.088;2022-08-19T13:00:22;31.30;61.00
32217;DHT22;18709;51.140;4.088;2022-08-19T13:02:50;31.70;60.40
32217;DHT22;18709;51.140;4.088;2022-08-19T13:05:25;32.10;59.30
32217;DHT22;18709;51.140;4.088;2022-08-19T13:07:52;32.30;58.50
32217;DHT22;18709;51.140;4.088;2022-08-19T13:10:25;32.50;57.90
32217;DHT22;18709;51.140;4.088;2022-08-19T13:12:53;32.40;57.70
32217;DHT22;18709;51.140;4.088;2022-08-19T13:15:20;32.20;58.10
32217;DHT22;18709;51.140;4.088;2022-08-19T13:17:51;32.00;57.90
32217;DHT22;18709;51.140;4.088;2022-08-19T13:20:19;31.70;58.30
32217;DHT22;18709;51.140;4.088;2022-08-19T13:22:46;31.70;58.60
32217;DHT22;18709;51.140;4.088;2022-08-19T13:25:14;31.70;58.90
32217;DHT22;18709;51.140;4.088;2022-08-19T13:27:44;31.50;59.10
32217;DHT22;18709;51.140;4.088;2022-08-19T13:30:12;31.40;59.60
32217;DHT22;18709;51.140;4.088;2022-08-19T13:32:57;31.30;60.00
32217;DHT22;18709;51.140;4.088;2022-08-19T13:35:50;31.10;59.90
32217;DHT22;18709;51.140;4.088;2022-08-19T13:38:20;30.80;60.40
32217;DHT22;18709;51.140;4.088;2022-08-19T13:40:46;30.30;61.50
32217;DHT22;18709;51.140;4.088;2022-08-19T13:43:13;30.00;62.10
32217;DHT22;18709;51.140;4.088;2022-08-19T13:45:44;29.90;62.30
32217;DHT22;18709;51.140;4.088;2022-08-19T13:48:10;29.80;62.40
32217;DHT22;18709;51.140;4.088;2022-08-19T13:50:44;29.50;63.50
32217;DHT22;18709;51.140;4.088;2022-08-19T13:53:10;29.30;64.10
32217;DHT22;18709;51.140;4.088;2022-08-19T13:55:43;29.20;64.00
32217;DHT22;18709;51.140;4.088;2022-08-19T13:58:10;29.20;64.00
32217;DHT22;18709;51.140;4.088;2022-08-19T14:00:41;28.90;64.70
32217;DHT22;18709;51.140;4.088;2022-08-19T14:03:07;28.60;65.40
32217;DHT22;18709;51.140;4.088;2022-08-19T14:05:35;28.30;66.50
32217;DHT22;18709;51.140;4.088;2022-08-19T14:08:01;28.20;65.80
32217;DHT22;18709;51.140;4.088;2022-08-19T14:10:27;27.90;67.80
32217;DHT22;18709;51.140;4.088;2022-08-19T14:12:55;27.40;71.30
32217;DHT22;18709;51.140;4.088;2022-08-19T14:15:21;26.80;75.20
32217;DHT22;18709;51.140;4.088;2022-08-19T14:17:47;26.10;77.80
32217;DHT22;18709;51.140;4.088;2022-08-19T14:20:17;25.50;81.30
32217;DHT22;18709;51.140;4.088;2022-08-19T14:22:47;25.30;82.20
32217;DHT22;18709;51.140;4.088;2022-08-19T14:25:17;25.30;82.60
32217;DHT22;18709;51.140;4.088;2022-08-19T14:27:43;25.50;82.90
32217;DHT22;18709;51.140;4.088;2022-08-19T14:30:12;25.70;82.30
32217;DHT22;18709;51.140;4.088;2022-08-19T14:32:39;25.90;81.70
32217;DHT22;18709;51.140;4.088;2022-08-19T14:35:06;26.30;81.00
32217;DHT22;18709;51.140;4.088;2022-08-19T14:37:33;26.60;80.60
32217;DHT22;18709;51.140;4.088;2022-08-19T14:39:59;26.90;80.00
32217;DHT22;18709;51.140;4.088;2022-08-19T14:42:25;27.20;79.10
32217;DHT22;18709;51.140;4.088;2022-08-19T14:44:51;27.40;78.20
32217;DHT22;18709;51.140;4.088;2022-08-19T14:47:17;27.60;77.90
32217;DHT22;18709;51.140;4.088;2022-08-19T14:49:42;27.70;77.30
32217;DHT22;18709;51.140;4.088;2022-08-19T14:52:09;28.00;77.40
32217;DHT22;18709;51.140;4.088;2022-08-19T14:54:35;28.10;77.00
32217;DHT22;18709;51.140;4.088;2022-08-19T14:57:00;28.30;76.40
32217;DHT22;18709;51.140;4.088;2022-08-19T14:59:26;28.50;75.30
32217;DHT22;18709;51.140;4.088;2022-08-19T15:01:52;28.70;75.60
32217;DHT22;18709;51.140;4.088;2022-08-19T15:04:18;29.20;74.10
32217;DHT22;18709;51.140;4.088;2022-08-19T15:06:43;29.70;73.30
32217;DHT22;18709;51.140;4.088;2022-08-19T15:09:10;30.00;72.50
32217;DHT22;18709;51.140;4.088;2022-08-19T15:11:36;30.50;71.10
32217;DHT22;18709;51.140;4.088;2022-08-19T15:14:02;31.40;69.50
32217;DHT22;18709;51.140;4.088;2022-08-19T15:16:30;32.20;67.90
32217;DHT22;18709;51.140;4.088;2022-08-19T15:18:57;32.70;65.40
32217;DHT22;18709;51.140;4.088;2022-08-19T15:21:25;32.80;64.20
32217;DHT22;18709;51.140;4.088;2022-08-19T15:23:52;32.60;63.80
32217;DHT22;18709;51.140;4.088;2022-08-19T15:26:19;32.60;64.60
32217;DHT22;18709;51.140;4.088;2022-08-19T15:28:46;32.80;64.50
32217;DHT22;18709;51.140;4.088;2022-08-19T15:31:12;33.00;64.00
32217;DHT22;18709;51.140;4.088;2022-08-19T15:33:39;33.40;63.20
32217;DHT22;18709;51.140;4.088;2022-08-19T15:36:10;33.70;61.90
32217;DHT22;18709;51.140;4.088;2022-08-19T15:38:37;33.80;61.00
32217;DHT22;18709;51.140;4.088;2022-08-19T15:41:05;33.80;60.80
32217;DHT22;18709;51.140;4.088;2022-08-19T15:43:55;33.90;60.50
32217;DHT22;18709;51.140;4.088;2022-08-19T15:46:23;33.60;60.10
32217;DHT22;18709;51.140;4.088;2022-08-19T15:48:51;33.00;61.70